createdAt,value
2018-03-06T00:02:23.000Z,76.00
2018-03-06T00:04:50.604Z,75.50
2018-03-06T00:07:18.979Z,76.00
2018-03-06T00:09:46.600Z,76.00
2018-03-06T00:12:14.226Z,76.90
2018-03-06T00:14:42.604Z,76.40
2018-03-06T00:17:11.021Z,76.20
2018-03-06T00:19:38.640Z,76.20
2018-03-06T00:22:06.283Z,77.50
2018-03-06T00:24:33.897Z,77.50
2018-03-06T00:27:02.288Z,76.80
2018-03-06T00:29:29.906Z,76.80
2018-03-06T00:31:57.540Z,77.30
2018-03-06T00:34:25.181Z,76.40
2018-03-06T00:36:52.799Z,76.70
2018-03-06T00:39:20.412Z,77.40
2018-03-06T00:41:48.053Z,77.00
2018-03-06T00:44:15.671Z,77.30
2018-03-06T00:46:43.289Z,77.50
2018-03-06T00:49:10.914Z,77.50
2018-03-06T00:51:38.542Z,77.80
2018-03-06T00:54:06.163Z,78.10
2018-03-06T00:56:33.773Z,77.20
2018-03-06T00:59:01.400Z,76.00
2018-03-06T01:01:29.028Z,76.20
2018-03-06T01:03:56.658Z,77.80
2018-03-06T01:06:24.285Z,77.10
2018-03-06T01:08:51.908Z,77.50
2018-03-06T01:11:19.541Z,76.70
2018-03-06T01:13:47.160Z,77.40
2018-03-06T01:16:25.697Z,76.70
2018-03-06T01:18:53.321Z,77.10
2018-03-06T01:21:20.942Z,77.80
2018-03-06T01:23:48.560Z,77.30
2018-03-06T01:26:16.195Z,77.10
2018-03-06T01:28:43.808Z,76.00
2018-03-06T01:31:11.434Z,78.00
2018-03-06T01:33:39.056Z,77.10
2018-03-06T01:36:06.682Z,78.40
2018-03-06T01:38:34.305Z,77.60
2018-03-06T01:41:01.941Z,77.30
2018-03-06T01:43:29.552Z,77.80
2018-03-06T01:45:57.939Z,78.30
2018-03-06T01:48:26.320Z,78.90
2018-03-06T01:50:54.724Z,78.80
2018-03-06T01:53:22.348Z,78.80
2018-03-06T01:55:49.980Z,77.20
2018-03-06T01:58:17.606Z,77.80
2018-03-06T02:00:46.035Z,79.00
2018-03-06T02:03:13.645Z,78.90
2018-03-06T02:05:41.264Z,78.90
2018-03-06T02:08:08.906Z,79.00
2018-03-06T02:10:36.518Z,78.70
2018-03-06T02:13:04.153Z,78.50
2018-03-06T02:15:31.791Z,78.40
2018-03-06T02:18:00.185Z,78.30
2018-03-06T02:20:27.812Z,78.20
2018-03-06T02:22:55.440Z,80.00
2018-03-06T02:25:23.061Z,79.40
2018-03-06T02:27:50.715Z,78.60
2018-03-06T02:30:18.337Z,79.80
2018-03-06T02:32:45.980Z,79.40
2018-03-06T02:35:13.616Z,78.60
2018-03-06T02:37:41.644Z,77.10
2018-03-06T02:40:09.264Z,77.80
2018-03-06T02:42:36.886Z,77.70
2018-03-06T02:45:04.522Z,78.70
2018-03-06T02:47:32.140Z,78.60
2018-03-06T02:49:59.768Z,78.70
2018-03-06T02:52:27.404Z,78.50
2018-03-06T02:54:55.815Z,80.10
2018-03-06T02:57:23.420Z,80.00
2018-03-06T02:59:51.057Z,79.60
2018-03-06T03:02:18.670Z,80.60
2018-03-06T03:04:46.314Z,80.00
2018-03-06T03:07:13.935Z,79.20
2018-03-06T03:09:41.555Z,80.10
2018-03-06T03:12:09.172Z,80.20
2018-03-06T03:14:36.802Z,78.80
2018-03-06T03:17:04.445Z,79.70
2018-03-06T03:19:33.056Z,79.40
2018-03-06T03:22:00.689Z,78.70
2018-03-06T03:24:28.312Z,79.90
2018-03-06T03:26:55.949Z,79.60
2018-03-06T03:29:23.564Z,80.00
2018-03-06T03:31:51.188Z,79.50
2018-03-06T03:34:18.807Z,79.30
2018-03-06T03:36:46.445Z,79.00
2018-03-06T03:39:14.072Z,79.00
2018-03-06T03:41:41.704Z,77.70
2018-03-06T03:44:09.336Z,78.60
2018-03-06T03:46:37.744Z,79.70
2018-03-06T03:49:05.368Z,79.60
2018-03-06T03:51:33.756Z,79.30
2018-03-06T03:54:02.161Z,79.10
2018-03-06T03:56:29.796Z,79.10
2018-03-06T03:58:57.424Z,80.00
2018-03-06T04:01:25.053Z,79.50
2018-03-06T04:03:52.684Z,80.10
2018-03-06T04:06:20.308Z,80.30
2018-03-06T04:08:47.929Z,79.70
2018-03-06T04:11:15.556Z,79.40
2018-03-06T04:13:43.957Z,79.60
2018-03-06T04:16:11.592Z,80.10
2018-03-06T04:18:39.212Z,79.90
2018-03-06T04:21:06.827Z,80.00
2018-03-06T04:23:34.448Z,80.20
2018-03-06T04:26:02.087Z,80.00
2018-03-06T04:28:29.712Z,80.30
2018-03-06T04:30:58.244Z,80.40
2018-03-06T04:33:25.879Z,79.90
2018-03-06T04:35:53.500Z,79.70
2018-03-06T04:38:21.891Z,79.90
2018-03-06T04:40:50.280Z,79.50
2018-03-06T04:43:17.913Z,79.50
2018-03-06T04:45:45.590Z,80.60
2018-03-06T04:48:13.208Z,80.60
2018-03-06T04:50:40.843Z,80.20
2018-03-06T04:53:08.937Z,80.50
2018-03-06T04:55:36.565Z,81.10
2018-03-06T04:58:04.188Z,80.80
2018-03-06T05:00:32.005Z,80.80
2018-03-06T05:03:04.057Z,79.60
2018-03-06T05:05:31.713Z,79.60
2018-03-06T05:07:59.343Z,80.90
2018-03-06T05:10:26.972Z,80.50
2018-03-06T05:12:54.888Z,81.10
2018-03-06T05:15:22.508Z,80.20
2018-03-06T05:17:50.926Z,81.40
2018-03-06T05:20:18.536Z,81.20
2018-03-06T05:22:46.169Z,80.80
2018-03-06T05:25:13.806Z,81.20
2018-03-06T05:27:42.199Z,81.20
2018-03-06T05:30:09.829Z,81.10
2018-03-06T05:32:37.456Z,81.40
2018-03-06T05:35:05.092Z,81.00
2018-03-06T05:37:32.720Z,81.70
2018-03-06T05:40:02.346Z,81.80
2018-03-06T05:42:29.968Z,81.30
2018-03-06T05:44:57.593Z,81.00
2018-03-06T05:50:13.101Z,81.60
2018-03-06T05:52:41.106Z,81.50
2018-03-06T05:55:08.724Z,81.50
2018-03-06T05:57:37.117Z,81.10
2018-03-06T06:00:04.755Z,81.10
2018-03-06T06:02:32.380Z,80.50
2018-03-06T06:05:00.005Z,80.80
2018-03-06T06:07:27.901Z,81.00
2018-03-06T06:09:55.524Z,81.40
2018-03-06T06:12:23.147Z,80.00
2018-03-06T06:14:50.830Z,81.50
2018-03-06T06:17:18.785Z,80.90
2018-03-06T06:19:46.412Z,81.80
2018-03-06T06:22:14.810Z,82.60
2018-03-06T06:24:43.599Z,82.20
2018-03-06T06:27:11.240Z,82.20
2018-03-06T06:29:38.868Z,82.20
2018-03-06T06:32:06.500Z,82.20
2018-03-06T06:34:34.124Z,81.90
2018-03-06T06:37:01.753Z,81.90
2018-03-06T06:39:29.379Z,83.10
2018-03-06T06:41:57.773Z,82.90
2018-03-06T06:44:25.399Z,82.80
2018-03-06T06:46:53.077Z,83.20
2018-03-06T06:49:22.590Z,83.50
2018-03-06T06:51:50.184Z,83.40
2018-03-06T06:54:17.809Z,82.90
2018-03-06T06:56:45.437Z,83.50
2018-03-06T06:59:13.060Z,83.40
2018-03-06T07:01:40.693Z,82.90
2018-03-06T07:04:08.313Z,84.30
2018-03-06T07:06:35.949Z,83.50
2018-03-06T07:09:03.562Z,83.60
2018-03-06T07:11:31.207Z,83.70
2018-03-06T07:13:58.841Z,83.70
2018-03-06T07:16:26.482Z,83.90
2018-03-06T07:18:54.105Z,82.90
2018-03-06T07:21:22.488Z,82.70
2018-03-06T07:23:50.888Z,82.80
2018-03-06T07:26:18.504Z,83.60
2018-03-06T07:28:46.132Z,82.20
2018-03-06T07:31:13.760Z,82.30
2018-03-06T07:33:42.146Z,83.00
2018-03-06T07:36:10.532Z,82.70
2018-03-06T07:38:38.924Z,82.80
2018-03-06T07:41:06.570Z,82.70
2018-03-06T07:43:34.192Z,83.20
2018-03-06T07:46:01.816Z,83.00
2018-03-06T07:48:30.217Z,84.60
2018-03-06T07:50:57.840Z,84.50
2018-03-06T07:53:25.456Z,84.60
2018-03-06T07:55:53.101Z,83.70
2018-03-06T07:58:20.713Z,82.20
2018-03-06T08:00:48.348Z,81.30
2018-03-06T08:03:15.972Z,79.20
2018-03-06T08:05:43.589Z,79.50
2018-03-06T08:08:11.208Z,79.50
2018-03-06T08:10:38.828Z,78.70
2018-03-06T08:13:06.458Z,79.60
2018-03-06T08:15:34.086Z,78.60
2018-03-06T08:18:01.724Z,78.40
2018-03-06T08:20:29.364Z,78.60
2018-03-06T08:22:57.742Z,74.20
2018-03-06T08:25:26.136Z,71.90
2018-03-06T08:27:53.760Z,71.90
2018-03-06T08:30:21.396Z,71.60
2018-03-06T08:32:49.865Z,69.40
2018-03-06T08:35:17.479Z,68.90
2018-03-06T08:37:45.105Z,68.40
2018-03-06T08:40:12.729Z,66.10
2018-03-06T08:42:41.136Z,65.80
2018-03-06T08:45:08.783Z,65.80
2018-03-06T08:47:37.176Z,64.60
2018-03-06T08:50:04.804Z,64.50
2018-03-06T08:52:32.440Z,64.80
2018-03-06T08:55:00.061Z,65.90
2018-03-06T08:57:28.448Z,67.10
2018-03-06T08:59:56.832Z,66.60
2018-03-06T09:02:25.221Z,64.10
2018-03-06T09:04:53.609Z,65.00
2018-03-06T09:07:21.226Z,65.00
2018-03-06T09:09:48.864Z,62.90
2018-03-06T09:12:16.492Z,62.40
2018-03-06T09:14:44.872Z,63.00
2018-03-06T09:17:13.304Z,62.60
2018-03-06T09:19:40.905Z,62.50
2018-03-06T09:22:08.528Z,62.20
2018-03-06T09:24:36.178Z,61.20
2018-03-06T09:27:04.554Z,58.30
2018-03-06T09:29:32.177Z,58.30
2018-03-06T09:31:59.800Z,58.50
2018-03-06T09:34:27.423Z,57.10
2018-03-06T09:36:55.059Z,56.90
2018-03-06T09:39:22.684Z,57.00
2018-03-06T09:41:50.321Z,55.40
2018-03-06T09:44:17.950Z,55.10
2018-03-06T09:46:45.573Z,54.10
2018-03-06T09:49:13.972Z,53.60
2018-03-06T09:51:41.608Z,53.60
2018-03-06T09:54:09.248Z,52.50
2018-03-06T09:56:36.877Z,51.50
2018-03-06T09:59:04.503Z,51.10
2018-03-06T10:01:32.146Z,51.40
2018-03-06T10:03:59.777Z,51.50
2018-03-06T10:06:27.417Z,50.10
2018-03-06T10:08:55.049Z,48.60
2018-03-06T10:11:22.677Z,49.30
2018-03-06T10:13:50.315Z,48.70
2018-03-06T10:16:18.789Z,47.30
2018-03-06T10:18:46.429Z,47.40
2018-03-06T10:21:14.066Z,48.80
2018-03-06T10:23:41.697Z,47.10
2018-03-06T10:26:10.097Z,47.00
2018-03-06T10:28:37.737Z,46.90
2018-03-06T10:31:05.373Z,44.60
2018-03-06T10:33:33.082Z,45.00
2018-03-06T10:36:00.725Z,44.00
2018-03-06T10:38:28.357Z,46.20
2018-03-06T10:40:55.993Z,46.40
2018-03-06T10:43:23.634Z,45.50
2018-03-06T10:45:51.281Z,44.10
2018-03-06T10:48:18.925Z,44.00
2018-03-06T10:50:46.562Z,45.30
2018-03-06T10:53:14.207Z,44.20
2018-03-06T10:55:41.837Z,43.90
2018-03-06T10:58:09.473Z,44.00
2018-03-06T11:00:37.109Z,44.60
2018-03-06T11:03:05.509Z,43.10
2018-03-06T11:05:33.128Z,43.10
2018-03-06T11:08:00.765Z,41.90
2018-03-06T11:10:28.402Z,42.10
2018-03-06T11:12:56.027Z,42.80
2018-03-06T11:15:23.761Z,42.80
2018-03-06T11:17:51.387Z,44.30
2018-03-06T11:20:19.784Z,42.50
2018-03-06T11:22:47.423Z,42.50
2018-03-06T11:25:15.044Z,42.30
2018-03-06T11:27:42.681Z,41.70
2018-03-06T11:30:10.317Z,41.60
2018-03-06T11:32:37.940Z,41.30
2018-03-06T11:35:05.568Z,41.30
2018-03-06T11:37:33.964Z,42.70
2018-03-06T11:40:01.598Z,42.60
2018-03-06T11:42:29.220Z,41.80
2018-03-06T11:44:56.849Z,43.20
2018-03-06T11:47:25.244Z,42.50
2018-03-06T11:49:52.882Z,42.50
2018-03-06T11:52:20.507Z,42.10
2018-03-06T11:54:48.128Z,42.20
2018-03-06T11:57:16.545Z,43.00
2018-03-06T11:59:44.172Z,42.90
2018-03-06T12:02:12.577Z,44.40
2018-03-06T12:04:40.211Z,44.30
2018-03-06T12:07:07.830Z,42.30
2018-03-06T12:09:35.456Z,42.80
2018-03-06T12:12:03.857Z,43.20
2018-03-06T12:14:31.488Z,43.10
2018-03-06T12:16:59.121Z,42.30
2018-03-06T12:19:26.750Z,43.10
2018-03-06T12:21:55.144Z,43.70
2018-03-06T12:24:22.782Z,43.80
2018-03-06T12:26:51.173Z,41.50
2018-03-06T12:29:19.560Z,40.70
2018-03-06T12:31:47.952Z,42.30
2018-03-06T12:34:15.580Z,41.70
2018-03-06T12:36:43.212Z,41.10
2018-03-06T12:39:10.848Z,40.40
2018-03-06T12:41:38.472Z,39.90
2018-03-06T12:44:09.385Z,41.60
2018-03-06T12:46:37.023Z,39.70
2018-03-06T12:49:04.668Z,39.20
2018-03-06T12:51:32.287Z,39.50
2018-03-06T12:53:59.919Z,40.60
2018-03-06T12:56:28.319Z,39.20
2018-03-06T12:58:55.965Z,39.10
2018-03-06T13:01:24.374Z,41.80
2018-03-06T13:03:51.987Z,41.80
2018-03-06T13:06:19.610Z,39.90
2018-03-06T13:08:47.243Z,41.40
2018-03-06T13:11:15.635Z,41.80
2018-03-06T13:13:43.275Z,41.80
2018-03-06T13:16:10.899Z,41.10
2018-03-06T13:18:38.522Z,39.70
2018-03-06T13:21:06.151Z,40.60
2018-03-06T13:23:33.785Z,39.80
2018-03-06T13:26:01.409Z,39.70
2018-03-06T13:28:29.820Z,39.70
2018-03-06T13:30:57.444Z,39.00
2018-03-06T13:33:25.090Z,38.40
2018-03-06T13:35:52.712Z,37.30
2018-03-06T13:38:20.361Z,37.40
2018-03-06T13:40:47.991Z,36.00
2018-03-06T13:43:15.608Z,37.00
2018-03-06T13:45:43.247Z,37.60
2018-03-06T13:48:11.561Z,36.90
2018-03-06T13:50:39.193Z,35.30
2018-03-06T13:53:06.841Z,37.30
2018-03-06T13:55:34.480Z,37.40
2018-03-06T13:58:02.114Z,37.30
2018-03-06T14:00:29.792Z,38.30
2018-03-06T14:02:57.433Z,38.30
2018-03-06T14:05:25.832Z,40.50
2018-03-06T14:07:54.313Z,39.00
2018-03-06T14:10:22.721Z,39.10
2018-03-06T14:12:50.360Z,39.10
2018-03-06T14:15:18.744Z,40.20
2018-03-06T14:17:47.143Z,44.40
2018-03-06T14:20:14.772Z,44.50
2018-03-06T14:22:43.168Z,41.60
2018-03-06T14:25:10.853Z,41.60
2018-03-06T14:27:38.460Z,42.30
2018-03-06T14:30:06.102Z,41.70
2018-03-06T14:32:33.717Z,40.90
2018-03-06T14:35:01.340Z,42.40
2018-03-06T14:37:28.986Z,43.40
2018-03-06T14:39:56.864Z,44.40
2018-03-06T14:42:24.495Z,43.70
2018-03-06T14:44:52.132Z,42.20
2018-03-06T14:47:19.756Z,43.90
2018-03-06T14:49:47.393Z,43.80
2018-03-06T14:52:15.032Z,45.30
2018-03-06T14:54:42.663Z,45.60
2018-03-06T14:57:10.291Z,44.70
2018-03-06T14:59:37.912Z,44.20
2018-03-06T15:02:05.540Z,45.40
2018-03-06T15:04:33.939Z,48.40
2018-03-06T15:07:01.577Z,48.30
2018-03-06T15:09:29.210Z,46.10
2018-03-06T15:11:56.874Z,44.50
2018-03-06T15:14:24.584Z,45.80
2018-03-06T15:16:52.977Z,48.10
2018-03-06T15:19:21.373Z,48.30
2018-03-06T15:21:49.012Z,48.40
2018-03-06T15:24:16.676Z,47.00
2018-03-06T15:26:44.320Z,46.90
2018-03-06T15:29:11.944Z,47.30
2018-03-06T15:31:39.571Z,47.90
2018-03-06T15:34:07.249Z,49.70
2018-03-06T15:36:34.860Z,49.90
2018-03-06T15:39:02.516Z,48.00
2018-03-06T15:41:30.116Z,48.20
2018-03-06T15:43:57.769Z,48.20
2018-03-06T15:46:25.397Z,50.30
2018-03-06T15:49:08.001Z,48.60
2018-03-06T15:51:35.630Z,49.00
2018-03-06T15:54:03.257Z,48.30
2018-03-06T15:56:30.884Z,49.20
2018-03-06T15:58:59.295Z,51.50
2018-03-06T16:01:26.920Z,51.50
2018-03-06T16:03:54.565Z,50.30
2018-03-06T16:06:22.183Z,49.90
2018-03-06T16:08:49.809Z,49.90
2018-03-06T16:11:17.437Z,52.20
2018-03-06T16:13:45.056Z,52.00
2018-03-06T16:16:19.277Z,52.10
2018-03-06T16:18:47.673Z,53.10
2018-03-06T16:21:16.069Z,54.00
2018-03-06T16:23:43.712Z,54.00
2018-03-06T16:26:12.114Z,54.50
2018-03-06T16:28:39.742Z,54.50
2018-03-06T16:31:07.387Z,55.70
2018-03-06T16:33:35.013Z,55.90
2018-03-06T16:36:02.640Z,54.30
2018-03-06T16:38:31.057Z,57.30
2018-03-06T16:40:58.693Z,57.30
2018-03-06T16:43:26.330Z,56.60
2018-03-06T16:45:53.962Z,56.90
2018-03-06T16:48:25.176Z,56.80
2018-03-06T16:50:52.817Z,57.70
2018-03-06T16:53:20.713Z,57.60
2018-03-06T16:55:48.344Z,58.20
2018-03-06T16:58:16.067Z,58.10
2018-03-06T17:00:54.503Z,56.80
2018-03-06T17:03:22.124Z,56.80
2018-03-06T17:05:49.756Z,59.20
2018-03-06T17:08:17.381Z,59.20
2018-03-06T17:10:50.900Z,60.80
2018-03-06T17:13:18.577Z,60.70
2018-03-06T17:15:46.200Z,59.00
2018-03-06T17:18:13.824Z,61.50
2018-03-06T17:20:46.262Z,62.30
2018-03-06T17:23:14.663Z,63.60
2018-03-06T17:25:42.293Z,63.50
2018-03-06T17:28:10.869Z,63.30
2018-03-06T17:30:41.496Z,62.00
2018-03-06T17:33:09.122Z,63.30
2018-03-06T17:35:36.768Z,65.00
2018-03-06T17:38:04.418Z,65.10
2018-03-06T17:40:32.030Z,62.80
2018-03-06T17:42:59.661Z,64.30
2018-03-06T17:45:27.296Z,66.40
2018-03-06T17:47:54.916Z,66.30
2018-03-06T17:50:22.553Z,66.50
2018-03-06T17:52:54.287Z,67.10
2018-03-06T17:55:21.936Z,67.10
2018-03-06T17:57:49.557Z,67.40
2018-03-06T18:00:17.185Z,69.10
2018-03-06T18:02:44.804Z,69.30
2018-03-06T18:05:12.468Z,66.50
2018-03-06T18:07:42.034Z,68.10
2018-03-06T18:10:09.660Z,68.00
2018-03-06T18:12:37.286Z,68.20
2018-03-06T18:15:04.921Z,67.30
2018-03-06T18:17:32.549Z,68.40
2018-03-06T18:20:00.177Z,67.80
2018-03-06T18:22:35.797Z,70.30
2018-03-06T18:25:03.421Z,70.30
2018-03-06T18:27:31.084Z,71.30
2018-03-06T18:29:58.708Z,71.20
2018-03-06T18:32:26.352Z,70.60
2018-03-06T18:34:53.982Z,72.00
2018-03-06T18:37:21.606Z,72.20
2018-03-06T18:39:49.228Z,71.80
2018-03-06T18:42:16.866Z,71.90
2018-03-06T18:44:44.488Z,71.20
2018-03-06T18:47:12.115Z,71.50
2018-03-06T18:52:40.669Z,73.30
2018-03-06T18:55:08.303Z,71.00
2018-03-06T18:57:35.923Z,73.30
2018-03-06T19:03:34.131Z,72.30
2018-03-06T19:06:13.694Z,72.60
2018-03-06T19:08:41.437Z,73.20
2018-03-06T19:11:15.996Z,70.90
2018-03-06T19:16:34.894Z,72.90
2018-03-06T19:19:03.317Z,72.70
2018-03-06T19:21:31.026Z,72.60
2018-03-06T19:23:58.802Z,72.70
2018-03-06T19:26:28.341Z,73.90
2018-03-06T19:28:56.086Z,73.80
2018-03-06T19:31:23.875Z,74.30
2018-03-06T19:33:52.514Z,73.90
2018-03-06T19:36:20.618Z,73.90
2018-03-06T19:38:54.631Z,75.30
2018-03-06T19:41:22.369Z,74.30
2018-03-06T19:43:50.163Z,74.30
2018-03-06T19:46:17.889Z,74.30
2018-03-06T19:48:46.550Z,73.00
2018-03-06T19:51:14.986Z,74.00
2018-03-06T19:53:42.761Z,74.70
2018-03-06T19:56:10.469Z,73.20
2018-03-06T19:58:38.249Z,73.10
2018-03-06T20:01:06.395Z,73.80
2018-03-06T20:03:34.899Z,74.40
2018-03-06T20:06:02.664Z,74.30
2018-03-06T20:25:36.530Z,75.60
2018-03-06T20:28:05.842Z,75.60
2018-03-06T20:33:13.370Z,76.00
2018-03-06T20:35:41.145Z,75.90
2018-03-06T20:38:09.061Z,76.10
2018-03-06T20:40:52.247Z,75.20
2018-03-06T20:43:20.183Z,76.00
2018-03-06T20:45:48.712Z,76.00
2018-03-06T20:48:16.630Z,75.20
2018-03-06T20:50:46.152Z,76.30
2018-03-06T20:53:13.909Z,76.30
2018-03-06T20:55:44.780Z,74.80
2018-03-06T20:58:12.647Z,73.90
2018-03-06T21:00:40.582Z,74.40
2018-03-06T21:03:08.540Z,74.10
2018-03-06T21:05:36.457Z,73.90
2018-03-06T21:08:12.180Z,75.60
2018-03-06T21:10:42.684Z,76.00
2018-03-06T21:13:13.574Z,75.00
2018-03-06T21:15:41.357Z,75.50
2018-03-06T21:18:18.901Z,76.60
2018-03-06T21:20:47.854Z,76.60
2018-03-06T21:23:15.700Z,75.00
2018-03-06T21:25:44.310Z,76.80
2018-03-06T21:28:14.695Z,76.60
2018-03-06T21:30:42.592Z,77.20
2018-03-06T21:33:11.008Z,76.00
2018-03-06T21:35:38.981Z,77.50
2018-03-06T21:38:08.712Z,76.30
2018-03-06T21:40:37.476Z,78.90
2018-03-06T21:43:05.852Z,77.50
2018-03-06T21:45:34.014Z,76.10
2018-03-06T21:48:06.517Z,76.70
2018-03-06T21:50:35.445Z,77.50
2018-03-06T21:53:03.212Z,76.80
2018-03-06T21:55:31.880Z,76.10
2018-03-06T21:57:59.697Z,76.10
2018-03-06T22:00:27.440Z,76.90
2018-03-06T22:02:56.225Z,78.50
2018-03-06T22:05:23.981Z,76.30
2018-03-06T22:07:51.974Z,77.90
2018-03-06T22:10:19.897Z,77.30
2018-03-06T22:12:48.510Z,77.70
2018-03-06T22:15:16.287Z,77.60
2018-03-06T22:17:44.157Z,78.30
2018-03-06T22:20:12.681Z,78.30
2018-03-06T22:22:40.538Z,78.20
2018-03-06T22:25:08.428Z,77.70
2018-03-06T22:27:37.056Z,78.00
2018-03-06T22:30:04.849Z,78.10
2018-03-06T22:32:33.744Z,78.50
2018-03-06T22:35:01.894Z,79.00
2018-03-06T22:37:29.875Z,78.60
2018-03-06T22:42:30.746Z,78.00
2018-03-06T22:44:58.497Z,79.70
2018-03-06T22:50:11.820Z,78.40
2018-03-06T22:52:39.518Z,78.60
2018-03-06T22:55:07.341Z,79.00
2018-03-06T22:57:35.195Z,79.10
2018-03-06T23:00:03.051Z,78.90
2018-03-06T23:02:30.832Z,78.00
2018-03-06T23:04:58.541Z,78.10
2018-03-06T23:07:26.250Z,78.60
2018-03-06T23:09:53.994Z,78.30
2018-03-06T23:12:22.085Z,79.10
2018-03-06T23:14:49.935Z,78.50
2018-03-06T23:17:17.661Z,78.80
2018-03-06T23:19:45.466Z,79.10
2018-03-06T23:22:13.294Z,79.00
2018-03-06T23:24:41.030Z,79.20
2018-03-06T23:27:08.999Z,78.70
2018-03-06T23:29:36.766Z,79.10
2018-03-06T23:32:04.502Z,78.50
2018-03-06T23:34:32.420Z,79.50
2018-03-06T23:37:04.904Z,79.10
2018-03-06T23:39:37.173Z,79.00
2018-03-06T23:42:05.251Z,78.80
2018-03-06T23:44:34.010Z,79.50
2018-03-06T23:47:02.719Z,78.80
2018-03-06T23:49:31.345Z,78.80
2018-03-06T23:52:08.427Z,78.80
2018-03-06T23:54:36.247Z,78.30
2018-03-06T23:57:04.705Z,78.40
2018-03-06T23:59:32.536Z,79.00
